Time;durP1;ratioP1;P1;durP2;ratioP2;P2;SDS_P1;SDS_P2;PMS_P1;PMS_P2;Temp;Humidity;BMP_temperature;BMP_pressure;BME280_temperature;BME280_humidity;BME280_pressure;Samples;Min_cycle;Max_cycle;Signal;HPM_P1;HPM_P2
2023/03/18 00:01:02;;;;;;;13.98;9.00;;;14.40;99.90;;;;;;5032290;28;20244;-67
2023/03/18 00:03:30;;;;;;;18.52;10.02;;;14.40;99.90;;;;;;5031432;28;20183;-67
2023/03/18 00:06:11;;;;;;;18.67;10.25;;;14.30;99.90;;;;;;5026633;28;20182;-67
2023/03/18 00:08:38;;;;;;;21.92;10.00;;;14.30;99.90;;;;;;5049068;28;20635;-67
2023/03/18 00:11:06;;;;;;;16.13;9.57;;;14.30;99.90;;;;;;5019786;28;20316;-67
2023/03/18 00:13:33;;;;;;;17.23;9.70;;;14.40;99.90;;;;;;5034989;28;20213;-67
2023/03/18 00:16:00;;;;;;;14.48;9.77;;;14.40;99.90;;;;;;5040866;28;20207;-67
2023/03/18 00:18:26;;;;;;;16.92;10.05;;;14.20;99.90;;;;;;5035860;28;20187;-68
2023/03/18 00:20:52;;;;;;;19.17;10.88;;;14.00;99.90;;;;;;5032417;28;20189;-69
2023/03/18 00:23:18;;;;;;;21.20;11.98;;;14.10;99.90;;;;;;5024815;28;20239;-67
2023/03/18 00:25:47;;;;;;;18.52;11.73;;;14.00;99.90;;;;;;5053273;28;20197;-67
2023/03/18 00:28:13;;;;;;;18.92;11.43;;;14.10;99.90;;;;;;5052455;28;20235;-69
2023/03/18 00:30:40;;;;;;;19.98;11.63;;;14.20;99.90;;;;;;5031649;28;20612;-68
2023/03/18 00:33:07;;;;;;;20.33;10.27;;;14.10;99.90;;;;;;5050260;28;20212;-68
2023/03/18 00:35:35;;;;;;;20.75;12.07;;;14.00;99.90;;;;;;5026293;28;20211;-68
2023/03/18 00:38:02;;;;;;;20.88;11.85;;;14.00;99.90;;;;;;5048825;28;20240;-68
2023/03/18 00:40:41;;;;;;;25.33;12.32;;;14.00;99.90;;;;;;5044303;28;20273;-68
2023/03/18 00:43:09;;;;;;;16.02;11.55;;;13.90;99.90;;;;;;5035154;28;20640;-68
2023/03/18 00:45:39;;;;;;;15.43;10.65;;;13.90;99.90;;;;;;5051872;28;20185;-67
2023/03/18 00:48:06;;;;;;;16.55;10.07;;;13.80;99.90;;;;;;5038446;28;20178;-67
2023/03/18 00:50:35;;;;;;;18.05;10.65;;;13.70;99.90;;;;;;5042563;28;20240;-67
2023/03/18 00:53:01;;;;;;;21.23;11.48;;;13.60;99.90;;;;;;5044136;28;20183;-67
2023/03/18 00:55:28;;;;;;;19.27;11.98;;;13.50;99.90;;;;;;5037326;28;20225;-67
2023/03/18 00:57:54;;;;;;;16.92;10.63;;;13.60;99.90;;;;;;5037236;28;20178;-67
2023/03/18 01:00:20;;;;;;;20.02;12.05;;;13.60;99.90;;;;;;5046687;28;20193;-67
2023/03/18 01:02:48;;;;;;;17.40;11.05;;;13.60;99.90;;;;;;5023772;28;20654;-69
2023/03/18 01:05:15;;;;;;;17.63;11.13;;;13.70;99.90;;;;;;5050520;28;20178;-69
2023/03/18 01:07:41;;;;;;;19.38;12.68;;;13.70;99.90;;;;;;5034898;28;20223;-66
2023/03/18 01:10:08;;;;;;;21.35;11.52;;;13.60;99.90;;;;;;5042141;28;20185;-66
2023/03/18 01:12:33;;;;;;;19.70;11.50;;;13.80;99.90;;;;;;5046694;28;20317;-66
2023/03/18 01:14:59;;;;;;;18.90;11.60;;;13.70;99.90;;;;;;5044775;28;20459;-66
2023/03/18 01:17:25;;;;;;;22.52;11.63;;;13.70;99.90;;;;;;5017467;28;20194;-66
2023/03/18 01:19:51;;;;;;;19.10;12.00;;;13.40;99.90;;;;;;5041949;28;20181;-66
2023/03/18 01:22:17;;;;;;;22.15;13.23;;;13.40;99.90;;;;;;5027229;28;20186;-67
2023/03/18 01:24:43;;;;;;;17.80;11.10;;;13.40;99.90;;;;;;5046235;28;20189;-67
2023/03/18 01:27:09;;;;;;;19.70;12.85;;;13.40;99.90;;;;;;5050156;28;20676;-67
2023/03/18 01:29:35;;;;;;;17.52;12.18;;;13.60;99.90;;;;;;5031637;28;20276;-67
2023/03/18 01:32:01;;;;;;;25.50;14.43;;;13.50;99.90;;;;;;5034586;28;20186;-67
2023/03/18 01:34:27;;;;;;;20.75;13.50;;;13.50;99.90;;;;;;5023489;28;20206;-67
2023/03/18 01:36:54;;;;;;;23.98;13.55;;;13.40;99.90;;;;;;5030632;28;20232;-68
2023/03/18 01:39:22;;;;;;;26.02;14.07;;;13.40;99.90;;;;;;5039734;28;20709;-67
2023/03/18 01:41:48;;;;;;;20.67;12.63;;;13.30;99.90;;;;;;5045369;28;20177;-67
2023/03/18 01:44:18;;;;;;;19.83;11.27;;;13.40;99.90;;;;;;5046665;28;20185;-67
2023/03/18 01:46:51;;;;;;;25.70;13.25;;;13.50;99.90;;;;;;5038687;28;20174;-67
2023/03/18 01:49:19;;;;;;;23.73;12.55;;;13.60;99.90;;;;;;5043746;28;20238;-68
2023/03/18 01:51:56;;;;;;;18.27;12.15;;;13.70;99.90;;;;;;5041425;28;20200;-68
2023/03/18 01:54:24;;;;;;;20.77;12.23;;;13.60;99.90;;;;;;5029497;28;20317;-68
2023/03/18 01:56:51;;;;;;;19.30;11.77;;;13.60;99.90;;;;;;4998256;28;20191;-68
2023/03/18 01:59:18;;;;;;;23.77;11.60;;;13.70;99.90;;;;;;5050269;28;20189;-68
2023/03/18 02:02:09;;;;;;;21.08;12.45;;;13.70;99.90;;;;;;5037648;28;20178;-68
2023/03/18 02:04:44;;;;;;;24.13;12.32;;;13.80;99.90;;;;;;5035129;28;20182;-68
2023/03/18 02:07:16;;;;;;;21.02;13.10;;;13.70;99.90;;;;;;5043281;28;20225;-68
2023/03/18 02:09:42;;;;;;;24.80;13.75;;;13.70;99.90;;;;;;5072474;28;20268;-67
2023/03/18 02:12:10;;;;;;;21.42;13.25;;;13.70;99.90;;;;;;5067388;28;20181;-67
2023/03/18 02:14:37;;;;;;;24.90;12.88;;;13.50;99.90;;;;;;5067740;28;20213;-67
2023/03/18 02:17:09;;;;;;;20.48;12.55;;;13.60;99.90;;;;;;5074609;28;20165;-67
2023/03/18 02:19:58;;;;;;;20.23;12.43;;;13.50;99.90;;;;;;5063512;28;20196;-68
2023/03/18 02:22:37;;;;;;;20.58;12.13;;;13.40;99.90;;;;;;5063790;28;20689;-67
2023/03/18 02:25:48;;;;;;;22.13;12.73;;;13.30;99.90;;;;;;5071073;28;20215;-68
2023/03/18 02:28:20;;;;;;;24.70;11.30;;;13.20;99.90;;;;;;5031469;28;20280;-67
2023/03/18 02:30:50;;;;;;;22.45;12.55;;;13.20;99.90;;;;;;5036811;28;20209;-68
2023/03/18 02:33:18;;;;;;;26.98;12.05;;;13.20;99.90;;;;;;5055232;28;20186;-68
2023/03/18 02:35:46;;;;;;;21.33;12.52;;;13.20;99.90;;;;;;5062246;28;20225;-67
2023/03/18 02:38:12;;;;;;;22.20;12.10;;;13.40;99.90;;;;;;5075147;28;20185;-67
2023/03/18 02:40:40;;;;;;;23.05;12.48;;;13.30;99.90;;;;;;5073336;28;20181;-68
2023/03/18 02:43:24;;;;;;;16.00;10.80;;;13.20;99.90;;;;;;5073888;28;20524;-67
2023/03/18 02:46:02;;;;;;;22.67;12.07;;;13.20;99.90;;;;;;5064284;28;20302;-67
2023/03/18 02:48:36;;;;;;;21.08;11.88;;;13.20;99.90;;;;;;5066155;28;20178;-67
2023/03/18 02:51:03;;;;;;;19.50;10.07;;;13.20;99.90;;;;;;5068996;28;20205;-68
2023/03/18 02:53:29;;;;;;;16.27;10.50;;;13.30;99.90;;;;;;5064420;28;20269;-68
2023/03/18 02:55:55;;;;;;;16.05;9.82;;;13.20;99.90;;;;;;5063310;28;20284;-67
2023/03/18 02:58:21;;;;;;;20.02;9.60;;;13.10;99.90;;;;;;5047799;28;20186;-68
2023/03/18 03:00:47;;;;;;;18.55;9.55;;;13.10;99.90;;;;;;5060717;28;20185;-67
2023/03/18 03:03:13;;;;;;;17.75;9.20;;;13.20;99.90;;;;;;5054351;28;20174;-68
2023/03/18 03:05:38;;;;;;;16.67;9.52;;;13.30;99.90;;;;;;5065137;28;20338;-67
2023/03/18 03:08:05;;;;;;;14.10;9.82;;;13.30;99.90;;;;;;5069097;28;20610;-67
2023/03/18 03:10:30;;;;;;;16.20;8.85;;;13.40;99.90;;;;;;5070033;28;20703;-67
2023/03/18 03:12:56;;;;;;;17.30;9.35;;;13.40;99.90;;;;;;5074682;28;20264;-68
2023/03/18 03:15:22;;;;;;;16.77;9.13;;;13.40;99.90;;;;;;5046059;28;20206;-67
2023/03/18 03:17:48;;;;;;;19.25;10.52;;;13.20;99.90;;;;;;5068415;28;20550;-68
2023/03/18 03:20:14;;;;;;;17.65;10.57;;;13.10;99.90;;;;;;5063449;28;20177;-68
2023/03/18 03:22:41;;;;;;;16.67;10.57;;;13.00;99.90;;;;;;5066295;28;20296;-68
2023/03/18 03:25:09;;;;;;;18.00;10.32;;;13.00;99.90;;;;;;5073372;28;20189;-67
2023/03/18 03:27:35;;;;;;;17.38;12.60;;;12.90;99.90;;;;;;5062240;28;20178;-68
2023/03/18 03:30:01;;;;;;;16.05;11.10;;;12.90;99.90;;;;;;5052380;28;20227;-68
2023/03/18 03:32:27;;;;;;;15.00;8.82;;;12.80;99.90;;;;;;5064732;28;20185;-67
2023/03/18 03:34:53;;;;;;;16.50;9.88;;;12.90;99.90;;;;;;5068200;28;20206;-68
2023/03/18 03:37:19;;;;;;;17.52;11.00;;;12.70;99.90;;;;;;5070750;28;20276;-68
2023/03/18 03:39:44;;;;;;;16.30;10.75;;;12.80;99.90;;;;;;5058692;28;20534;-68
2023/03/18 03:42:10;;;;;;;18.17;10.35;;;12.70;99.90;;;;;;5069720;28;20192;-68
2023/03/18 03:44:36;;;;;;;21.42;10.02;;;12.70;99.90;;;;;;5046491;28;20269;-68
2023/03/18 03:47:02;;;;;;;19.45;10.30;;;12.70;99.90;;;;;;5061480;28;20185;-67
2023/03/18 03:49:28;;;;;;;17.52;11.82;;;12.80;99.90;;;;;;5072126;28;20264;-67
2023/03/18 03:51:54;;;;;;;17.92;9.85;;;12.70;99.90;;;;;;5066337;28;20598;-68
2023/03/18 03:54:19;;;;;;;20.30;11.33;;;12.70;99.90;;;;;;5063719;28;20196;-68
2023/03/18 03:56:46;;;;;;;16.30;9.85;;;12.60;99.90;;;;;;5063077;28;20627;-69
2023/03/18 03:59:12;;;;;;;15.25;9.13;;;12.50;99.90;;;;;;5069822;28;20190;-68
2023/03/18 04:01:38;;;;;;;18.20;9.43;;;12.40;99.90;;;;;;5071539;28;20185;-68
2023/03/18 04:04:04;;;;;;;17.17;9.52;;;12.40;99.90;;;;;;5073108;28;20508;-67
2023/03/18 04:06:29;;;;;;;14.47;8.90;;;12.40;99.90;;;;;;5067417;28;20234;-67
2023/03/18 04:08:55;;;;;;;18.83;10.90;;;12.40;99.90;;;;;;5013037;28;20273;-68
2023/03/18 04:11:21;;;;;;;13.43;8.85;;;12.40;99.90;;;;;;5053358;28;20189;-68
2023/03/18 04:13:47;;;;;;;16.20;9.60;;;12.10;99.90;;;;;;5028559;28;20655;-68
2023/03/18 04:16:13;;;;;;;17.90;9.52;;;12.10;99.90;;;;;;5025710;28;20201;-68
2023/03/18 04:18:39;;;;;;;14.43;10.13;;;12.20;99.90;;;;;;5026421;28;20216;-68
2023/03/18 04:21:06;;;;;;;14.27;9.03;;;12.30;99.90;;;;;;5049745;28;20265;-67
2023/03/18 04:23:32;;;;;;;18.97;10.27;;;12.10;99.90;;;;;;5051877;28;20180;-68
2023/03/18 04:25:58;;;;;;;16.60;9.87;;;12.10;99.90;;;;;;5032620;28;20541;-68
2023/03/18 04:28:24;;;;;;;15.23;8.82;;;12.20;99.90;;;;;;5050406;28;20194;-67
2023/03/18 04:30:50;;;;;;;13.70;8.60;;;12.20;99.90;;;;;;5031357;28;20220;-68
2023/03/18 04:33:16;;;;;;;14.90;9.53;;;12.30;99.90;;;;;;5023110;28;20193;-68
2023/03/18 04:35:42;;;;;;;15.53;9.67;;;12.10;99.90;;;;;;5033926;28;20692;-67
2023/03/18 04:38:08;;;;;;;16.30;8.73;;;12.10;99.90;;;;;;5017993;28;20281;-68
2023/03/18 04:40:34;;;;;;;14.90;8.80;;;12.10;99.90;;;;;;5038069;28;20220;-67
2023/03/18 04:43:00;;;;;;;17.80;9.48;;;12.10;99.90;;;;;;5031853;28;20225;-68
2023/03/18 04:45:25;;;;;;;15.90;9.77;;;12.00;99.90;;;;;;5049991;28;20508;-68
2023/03/18 04:47:51;;;;;;;15.85;9.38;;;11.90;99.90;;;;;;5047331;28;20190;-68
2023/03/18 04:50:17;;;;;;;14.60;8.57;;;11.80;99.90;;;;;;5048686;28;20538;-68
2023/03/18 04:52:44;;;;;;;18.17;10.23;;;11.90;99.90;;;;;;5018331;28;20197;-68
2023/03/18 04:55:12;;;;;;;15.37;9.67;;;11.90;99.90;;;;;;5043738;28;20202;-68
2023/03/18 04:57:41;;;;;;;14.20;9.53;;;11.90;99.90;;;;;;5032585;28;20229;-68
2023/03/18 05:00:10;;;;;;;18.97;10.80;;;11.80;99.90;;;;;;5034090;28;20554;-68
2023/03/18 05:02:36;;;;;;;12.53;9.40;;;11.90;99.90;;;;;;5043952;28;20185;-67
2023/03/18 05:05:02;;;;;;;18.73;9.47;;;11.80;99.90;;;;;;5045300;28;20190;-68
2023/03/18 05:07:28;;;;;;;21.40;10.37;;;11.80;99.90;;;;;;5046286;28;20217;-68
2023/03/18 05:09:54;;;;;;;20.90;10.60;;;11.80;99.90;;;;;;5049068;28;20179;-67
2023/03/18 05:12:20;;;;;;;15.50;10.37;;;11.60;99.90;;;;;;5042360;28;20235;-68
2023/03/18 05:14:46;;;;;;;18.73;11.10;;;11.60;99.90;;;;;;5042179;28;20289;-67
2023/03/18 05:17:16;;;;;;;17.27;10.00;;;11.70;99.90;;;;;;5034495;28;20188;-68
2023/03/18 05:19:47;;;;;;;17.10;10.47;;;11.70;99.90;;;;;;5038624;28;20174;-67
2023/03/18 05:22:15;;;;;;;23.50;12.13;;;11.70;99.90;;;;;;5048739;28;20190;-68
2023/03/18 05:24:42;;;;;;;23.87;11.63;;;11.60;99.90;;;;;;5051992;28;20533;-68
2023/03/18 05:27:09;;;;;;;17.20;10.20;;;11.60;99.90;;;;;;5034565;28;20185;-68
2023/03/18 05:29:37;;;;;;;17.83;11.37;;;11.60;99.90;;;;;;5044966;28;20187;-68
2023/03/18 05:32:05;;;;;;;19.53;11.67;;;11.60;99.90;;;;;;5038800;28;20243;-68
2023/03/18 05:34:32;;;;;;;20.57;12.07;;;11.50;99.90;;;;;;5035425;28;20339;-68
2023/03/18 05:36:58;;;;;;;20.40;11.17;;;11.60;99.90;;;;;;5040491;28;20181;-69
2023/03/18 05:39:24;;;;;;;22.70;12.80;;;11.60;99.90;;;;;;5020322;28;20279;-68
2023/03/18 05:41:49;;;;;;;25.10;12.73;;;11.50;99.90;;;;;;5048344;28;20192;-68
2023/03/18 05:44:15;;;;;;;20.53;13.27;;;11.50;99.90;;;;;;5041826;28;20178;-68
2023/03/18 05:46:42;;;;;;;30.50;14.07;;;11.40;99.90;;;;;;5044695;28;20185;-68
2023/03/18 05:49:08;;;;;;;19.77;12.47;;;11.30;99.90;;;;;;5029776;28;20190;-68
2023/03/18 05:51:33;;;;;;;22.73;13.13;;;11.30;99.90;;;;;;5043077;28;20191;-68
2023/03/18 05:53:59;;;;;;;25.03;14.23;;;11.40;99.90;;;;;;5027318;28;20545;-68
2023/03/18 05:56:25;;;;;;;26.60;13.50;;;11.40;99.90;;;;;;5034131;28;20221;-68
2023/03/18 05:58:51;;;;;;;24.63;12.67;;;11.40;99.90;;;;;;5033008;28;20202;-67
2023/03/18 06:01:18;;;;;;;23.93;13.37;;;11.40;99.90;;;;;;5030275;28;20197;-68
2023/03/18 06:03:44;;;;;;;19.60;12.30;;;11.30;99.90;;;;;;5026411;28;20341;-68
2023/03/18 06:06:10;;;;;;;25.33;14.93;;;11.30;99.90;;;;;;5040610;28;20273;-67
2023/03/18 06:08:36;;;;;;;18.23;12.50;;;11.30;99.90;;;;;;5014045;28;20637;-68
2023/03/18 06:11:02;;;;;;;22.27;12.47;;;11.40;99.90;;;;;;5048866;28;20231;-68
2023/03/18 06:13:28;;;;;;;20.90;12.07;;;11.40;99.90;;;;;;5051497;28;20174;-68
2023/03/18 06:15:59;;;;;;;23.40;14.37;;;11.50;99.90;;;;;;5042715;28;20213;-68
2023/03/18 06:18:25;;;;;;;22.10;11.77;;;11.60;99.90;;;;;;5048437;28;20648;-68
2023/03/18 06:20:51;;;;;;;26.20;13.47;;;11.50;99.90;;;;;;5050710;28;20208;-68
2023/03/18 06:23:17;;;;;;;27.67;13.37;;;11.50;99.90;;;;;;5017263;28;20190;-68
2023/03/18 06:25:45;;;;;;;22.53;13.43;;;11.40;99.90;;;;;;5023249;28;20195;-68
2023/03/18 06:28:11;;;;;;;25.53;13.47;;;11.60;99.90;;;;;;5048853;28;20176;-68
2023/03/18 06:30:37;;;;;;;21.73;13.13;;;11.70;99.90;;;;;;5018168;28;20179;-68
2023/03/18 06:33:03;;;;;;;16.77;10.97;;;11.70;99.90;;;;;;5037665;28;20595;-68
2023/03/18 06:35:30;;;;;;;22.07;11.60;;;11.60;99.90;;;;;;5038622;28;20206;-68
2023/03/18 06:37:56;;;;;;;24.10;12.50;;;11.60;99.90;;;;;;5033462;28;20612;-66
2023/03/18 06:40:23;;;;;;;22.10;12.27;;;11.70;99.90;;;;;;5016101;28;20643;-67
2023/03/18 06:42:49;;;;;;;22.80;12.27;;;11.90;99.90;;;;;;5033558;28;20345;-67
2023/03/18 06:45:16;;;;;;;26.30;13.07;;;11.80;99.90;;;;;;5033327;28;20232;-66
2023/03/18 06:47:42;;;;;;;18.50;12.43;;;11.80;99.90;;;;;;5032373;28;20209;-67
2023/03/18 06:50:09;;;;;;;25.97;12.23;;;11.80;99.90;;;;;;5046548;28;20557;-67
2023/03/18 06:52:36;;;;;;;22.00;11.87;;;11.80;99.90;;;;;;5034295;28;20264;-67
2023/03/18 06:55:02;;;;;;;21.83;13.67;;;11.90;99.90;;;;;;5052064;28;20197;-67
2023/03/18 06:57:29;;;;;;;17.00;10.73;;;12.00;99.90;;;;;;5044536;28;20232;-67
2023/03/18 06:59:56;;;;;;;21.83;12.77;;;12.00;99.90;;;;;;5052631;28;20203;-65
2023/03/18 07:02:26;;;;;;;23.30;12.90;;;12.30;99.90;;;;;;5053240;28;20252;-67
2023/03/18 07:04:51;;;;;;;19.15;12.60;;;12.60;99.90;;;;;;5044301;28;20170;-67
2023/03/18 07:07:18;;;;;;;15.93;10.90;;;12.80;99.90;;;;;;5043058;28;20233;-67
2023/03/18 07:09:43;;;;;;;23.52;13.27;;;12.90;99.90;;;;;;5053742;28;20639;-66
2023/03/18 07:12:12;;;;;;;15.82;10.57;;;13.00;99.90;;;;;;5033143;28;20190;-69
2023/03/18 07:14:39;;;;;;;21.30;12.23;;;13.10;99.90;;;;;;5048484;28;20202;-69
2023/03/18 07:17:05;;;;;;;21.98;11.75;;;13.40;99.90;;;;;;5042515;28;20573;-67
2023/03/18 07:19:32;;;;;;;19.10;9.95;;;13.50;99.90;;;;;;5034887;28;20304;-68
2023/03/18 07:21:58;;;;;;;15.85;10.05;;;13.60;99.90;;;;;;5036519;28;20170;-68
2023/03/18 07:24:24;;;;;;;13.40;9.43;;;14.10;99.90;;;;;;5044891;28;20183;-67
2023/03/18 07:26:50;;;;;;;16.52;9.75;;;15.00;99.90;;;;;;5041529;28;20552;-67
2023/03/18 07:29:16;;;;;;;14.80;9.15;;;15.90;99.90;;;;;;5025725;28;20190;-66
2023/03/18 07:31:42;;;;;;;10.80;8.23;;;16.60;99.90;;;;;;5050347;28;20643;-67
2023/03/18 07:34:08;;;;;;;9.35;6.53;;;16.90;99.90;;;;;;5025648;28;20290;-69
2023/03/18 07:36:35;;;;;;;10.75;8.27;;;16.50;99.90;;;;;;5053607;28;20217;-68
2023/03/18 07:39:02;;;;;;;10.77;7.20;;;16.40;99.90;;;;;;5047874;28;20178;-69
2023/03/18 07:41:28;;;;;;;11.90;7.85;;;15.90;99.90;;;;;;5028065;28;20693;-67
2023/03/18 07:43:54;;;;;;;11.95;7.75;;;16.00;99.90;;;;;;5032107;28;20186;-67
2023/03/18 07:46:20;;;;;;;11.48;7.97;;;15.90;99.90;;;;;;5019795;28;20669;-65
2023/03/18 07:48:47;;;;;;;11.20;8.18;;;15.30;99.90;;;;;;5053937;28;20257;-68
2023/03/18 07:51:14;;;;;;;14.10;8.10;;;14.90;99.90;;;;;;5044429;28;20187;-65
2023/03/18 07:53:41;;;;;;;13.88;8.77;;;14.50;99.90;;;;;;5050931;28;20182;-64
2023/03/18 07:56:08;;;;;;;11.63;8.88;;;14.30;99.90;;;;;;5025916;28;20616;-66
2023/03/18 07:58:35;;;;;;;12.75;8.52;;;14.10;99.90;;;;;;5047806;28;20182;-66
2023/03/18 08:01:01;;;;;;;13.25;8.52;;;14.00;99.90;;;;;;5050600;28;20655;-67
2023/03/18 08:03:27;;;;;;;15.43;8.00;;;14.00;99.90;;;;;;5019893;28;20269;-67
2023/03/18 08:05:53;;;;;;;10.75;7.35;;;14.30;99.90;;;;;;5047255;28;20575;-70
2023/03/18 08:08:19;;;;;;;13.25;7.20;;;15.00;99.90;;;;;;5035999;28;20217;-68
2023/03/18 08:10:44;;;;;;;7.93;6.60;;;15.70;99.90;;;;;;5049852;28;20223;-67
2023/03/18 08:13:11;;;;;;;7.97;6.70;;;15.40;99.90;;;;;;5046111;28;20639;-66
2023/03/18 08:15:37;;;;;;;11.07;6.65;;;15.50;99.90;;;;;;5021470;28;20225;-66
2023/03/18 08:18:04;;;;;;;13.05;7.30;;;15.40;99.90;;;;;;5025455;28;20198;-65
2023/03/18 08:20:30;;;;;;;7.03;5.82;;;15.30;99.90;;;;;;5023693;28;20206;-67
2023/03/18 08:22:56;;;;;;;10.77;6.90;;;15.20;99.90;;;;;;5052842;28;20281;-68
2023/03/18 08:25:22;;;;;;;7.78;6.00;;;15.10;99.90;;;;;;5013145;28;20182;-68
2023/03/18 08:27:49;;;;;;;13.02;6.47;;;15.10;99.90;;;;;;5043038;28;20229;-68
2023/03/18 08:30:15;;;;;;;8.27;6.35;;;15.10;99.90;;;;;;5040071;28;20247;-68
2023/03/18 08:32:41;;;;;;;10.68;6.78;;;15.20;99.90;;;;;;5041623;28;20653;-68
2023/03/18 08:35:08;;;;;;;9.82;7.53;;;15.20;99.90;;;;;;5048805;28;20260;-68
2023/03/18 08:37:34;;;;;;;8.60;5.75;;;15.10;99.90;;;;;;5031753;28;20185;-68
2023/03/18 08:40:00;;;;;;;12.20;6.60;;;15.00;99.90;;;;;;5050257;28;20236;-68
2023/03/18 08:42:26;;;;;;;10.85;6.32;;;14.90;99.90;;;;;;5051882;28;20212;-69
2023/03/18 08:44:52;;;;;;;8.63;6.45;;;14.70;99.90;;;;;;5025009;28;20182;-69
2023/03/18 08:47:18;;;;;;;10.93;6.55;;;14.60;99.90;;;;;;5050883;28;20206;-69
2023/03/18 08:49:45;;;;;;;8.73;6.32;;;14.50;99.90;;;;;;5050103;28;20173;-69
2023/03/18 08:52:10;;;;;;;10.90;6.75;;;14.60;99.90;;;;;;5042983;28;20189;-68
2023/03/18 08:54:36;;;;;;;9.63;6.13;;;14.60;99.90;;;;;;5033978;28;20202;-69
2023/03/18 08:57:02;;;;;;;10.02;5.93;;;14.60;99.90;;;;;;5046659;28;20182;-68
2023/03/18 08:59:28;;;;;;;13.10;6.90;;;14.70;99.90;;;;;;5050809;28;20185;-68
2023/03/18 09:01:53;;;;;;;7.68;5.45;;;14.90;99.90;;;;;;5047765;28;20281;-68
2023/03/18 09:04:19;;;;;;;7.38;5.05;;;15.10;99.90;;;;;;5043474;28;20531;-69
2023/03/18 09:06:47;;;;;;;7.63;5.57;;;15.30;99.90;;;;;;5050775;28;20312;-68
2023/03/18 09:09:14;;;;;;;7.90;5.80;;;15.60;99.90;;;;;;5021871;28;20194;-69
2023/03/18 09:11:40;;;;;;;8.98;5.53;;;15.60;99.90;;;;;;5029135;28;20539;-68
2023/03/18 09:14:05;;;;;;;5.15;4.47;;;15.70;99.90;;;;;;5031650;28;20270;-69
2023/03/18 09:16:31;;;;;;;6.90;5.30;;;15.70;99.90;;;;;;5032216;28;20205;-69
2023/03/18 09:18:57;;;;;;;10.65;5.95;;;15.50;99.90;;;;;;5047449;28;20693;-69
2023/03/18 09:21:23;;;;;;;5.60;4.93;;;15.20;99.90;;;;;;5034230;28;20177;-69
2023/03/18 09:23:49;;;;;;;12.52;5.22;;;15.10;99.90;;;;;;5027524;28;20167;-69
2023/03/18 09:26:15;;;;;;;6.43;4.90;;;15.30;99.90;;;;;;5032975;28;20247;-69
2023/03/18 09:28:41;;;;;;;8.68;5.10;;;15.30;99.90;;;;;;5030479;28;20671;-69
2023/03/18 09:31:07;;;;;;;7.20;5.38;;;15.30;99.90;;;;;;5012654;28;20174;-69
2023/03/18 09:33:35;;;;;;;7.28;5.18;;;15.40;99.90;;;;;;5045734;28;20197;-69
2023/03/18 09:36:02;;;;;;;4.93;4.15;;;15.50;99.90;;;;;;5034501;28;20727;-69
2023/03/18 09:38:27;;;;;;;6.75;4.55;;;15.50;99.90;;;;;;5031953;28;20178;-69
2023/03/18 09:41:08;;;;;;;6.22;4.43;;;15.40;99.90;;;;;;5043399;28;20178;-68
2023/03/18 09:44:01;;;;;;;9.10;4.18;;;15.50;99.90;;;;;;5046039;28;20618;-69
2023/03/18 09:46:49;;;;;;;5.55;4.15;;;15.50;99.90;;;;;;5045545;28;20232;-69
2023/03/18 09:49:26;;;;;;;5.13;4.03;;;15.50;99.90;;;;;;5038607;28;20171;-69
2023/03/18 09:51:58;;;;;;;7.22;5.10;;;15.50;99.90;;;;;;5038405;28;20526;-68
2023/03/18 09:54:44;;;;;;;8.68;4.70;;;15.60;99.90;;;;;;5049539;28;20178;-69
2023/03/18 09:57:27;;;;;;;7.32;4.55;;;15.60;99.90;;;;;;5036833;28;20181;-68
2023/03/18 10:00:07;;;;;;;6.03;3.90;;;15.50;99.90;;;;;;5046524;28;20616;-68
2023/03/18 10:02:41;;;;;;;5.85;4.20;;;15.40;99.90;;;;;;5027407;28;20192;-70
2023/03/18 10:05:23;;;;;;;9.18;4.97;;;15.30;99.90;;;;;;5049917;28;20505;-67
2023/03/18 10:07:55;;;;;;;9.85;4.57;;;15.30;99.90;;;;;;5051669;28;20652;-70
2023/03/18 10:10:26;;;;;;;7.88;4.50;;;15.20;99.90;;;;;;5048312;28;20261;-67
2023/03/18 10:18:02;;;;;;;5.45;4.53;;;14.80;99.90;;;;;;5049603;28;20592;-66
2023/03/18 10:20:40;;;;;;;7.95;5.15;;;14.60;99.90;;;;;;5031406;28;20191;-65
2023/03/18 10:23:19;;;;;;;7.95;4.50;;;14.60;99.90;;;;;;5029885;28;20258;-63
2023/03/18 10:25:53;;;;;;;7.03;3.97;;;14.60;99.90;;;;;;5035134;28;20175;-62
2023/03/18 10:28:31;;;;;;;6.72;4.13;;;14.70;99.90;;;;;;5032245;28;20652;-63
2023/03/18 10:31:15;;;;;;;5.72;3.63;;;14.60;99.90;;;;;;5035165;28;20234;-65
2023/03/18 10:33:46;;;;;;;4.88;3.97;;;14.70;99.90;;;;;;5020996;28;20197;-67
2023/03/18 10:36:15;;;;;;;4.05;3.65;;;14.70;99.90;;;;;;5029692;28;20198;-63
2023/03/18 10:38:45;;;;;;;5.75;3.75;;;14.60;99.90;;;;;;5032655;28;20174;-62
2023/03/18 10:41:16;;;;;;;5.40;3.35;;;14.60;99.90;;;;;;5023422;28;20233;-64
2023/03/18 10:43:43;;;;;;;6.43;3.45;;;14.60;99.90;;;;;;5025265;28;20632;-64
2023/03/18 10:46:13;;;;;;;7.97;3.75;;;14.30;99.90;;;;;;5025829;28;20202;-62
2023/03/18 10:48:44;;;;;;;4.05;3.10;;;14.10;99.90;;;;;;5031702;28;20194;-62
2023/03/18 10:51:20;;;;;;;4.40;3.25;;;14.20;99.90;;;;;;5026644;28;20280;-62
2023/03/18 10:53:54;;;;;;;5.55;3.42;;;14.10;99.90;;;;;;5029462;28;20530;-62
2023/03/18 10:56:21;;;;;;;3.70;3.22;;;14.20;99.90;;;;;;5026777;28;20205;-62
2023/03/18 10:58:48;;;;;;;6.53;3.35;;;14.50;99.90;;;;;;5030217;28;20197;-64
2023/03/18 11:01:16;;;;;;;5.32;3.70;;;14.60;99.90;;;;;;5025446;28;20188;-63
2023/03/18 11:03:49;;;;;;;4.03;2.83;;;14.90;99.90;;;;;;5024013;28;20250;-62
2023/03/18 11:06:47;;;;;;;5.93;3.20;;;15.10;99.90;;;;;;5020498;28;20183;-64
2023/03/18 11:09:21;;;;;;;4.45;3.40;;;15.30;99.90;;;;;;5021117;28;20203;-63
2023/03/18 11:11:55;;;;;;;3.92;2.90;;;15.50;99.90;;;;;;5022742;28;20662;-64
2023/03/18 11:14:28;;;;;;;5.93;2.83;;;15.50;99.90;;;;;;5026363;28;20193;-63
2023/03/18 11:17:03;;;;;;;3.25;2.88;;;15.50;99.90;;;;;;5028373;28;20226;-63
2023/03/18 11:19:46;;;;;;;4.10;3.45;;;15.80;99.90;;;;;;5021015;28;20178;-63
2023/03/18 11:22:19;;;;;;;10.35;3.03;;;15.80;99.90;;;;;;5030447;28;20229;-63
2023/03/18 11:24:59;;;;;;;6.35;3.22;;;15.90;99.90;;;;;;5028527;28;20178;-62
2023/03/18 11:27:31;;;;;;;5.20;3.60;;;15.90;99.90;;;;;;5035427;28;20565;-62
2023/03/18 11:30:30;;;;;;;4.03;3.00;;;16.00;99.90;;;;;;5029415;28;20166;-62
2023/03/18 11:33:02;;;;;;;2.90;2.58;;;16.00;99.90;;;;;;5017704;28;20187;-62
2023/03/18 11:35:38;;;;;;;4.63;3.60;;;16.00;99.90;;;;;;5006515;28;20708;-63
2023/03/18 11:38:04;;;;;;;3.28;2.97;;;16.00;99.90;;;;;;4998527;28;20192;-61
2023/03/18 11:40:30;;;;;;;3.45;2.38;;;15.90;99.90;;;;;;5034264;28;20182;-63
2023/03/18 11:43:12;;;;;;;3.03;2.53;;;16.20;99.90;;;;;;4996153;28;20187;-61
2023/03/18 11:45:59;;;;;;;2.70;2.45;;;16.40;99.90;;;;;;5006740;28;20174;-62
2023/03/18 11:48:35;;;;;;;5.88;2.55;;;16.50;99.90;;;;;;5001317;28;20191;-64
2023/03/18 11:51:09;;;;;;;2.78;2.47;;;16.50;99.90;;;;;;5012543;28;20513;-63
2023/03/18 11:53:53;;;;;;;2.85;2.58;;;16.60;99.90;;;;;;5028911;28;20244;-62
2023/03/18 11:56:56;;;;;;;2.55;2.13;;;16.40;99.90;;;;;;5008725;28;20765;-63
2023/03/18 11:59:30;;;;;;;3.00;2.30;;;16.20;99.90;;;;;;4996215;28;20554;-63
2023/03/18 12:02:32;;;;;;;6.97;2.60;;;16.10;99.90;;;;;;4998935;28;20597;-62
2023/03/18 12:05:11;;;;;;;3.25;2.17;;;16.20;99.90;;;;;;4989708;28;20282;-62
2023/03/18 12:07:41;;;;;;;2.50;1.90;;;16.40;99.90;;;;;;5013503;28;20198;-61
2023/03/18 12:10:31;;;;;;;3.28;2.10;;;16.60;99.90;;;;;;5007514;28;20546;-62
2023/03/18 12:13:18;;;;;;;1.95;1.52;;;16.50;99.90;;;;;;4998238;28;20182;-62
2023/03/18 12:16:08;;;;;;;3.63;2.60;;;16.50;99.90;;;;;;5008926;28;20270;-62
2023/03/18 12:18:37;;;;;;;1.60;1.50;;;16.60;99.90;;;;;;5010196;28;20639;-62
2023/03/18 12:21:51;;;;;;;2.60;2.03;;;16.90;99.90;;;;;;5006828;28;20179;-63
2023/03/18 12:24:27;;;;;;;1.75;1.63;;;16.90;99.90;;;;;;4996141;28;20288;-63
2023/03/18 12:27:41;;;;;;;2.03;1.50;;;16.80;99.90;;;;;;5014194;28;20186;-61
2023/03/18 12:30:32;;;;;;;2.72;1.60;;;16.90;99.90;;;;;;5023128;28;20197;-61
2023/03/18 12:33:09;;;;;;;1.70;1.60;;;16.90;99.90;;;;;;5009384;28;20184;-63
2023/03/18 12:35:48;;;;;;;1.67;1.58;;;16.90;99.90;;;;;;5019055;28;20555;-63
2023/03/18 12:38:52;;;;;;;2.10;1.90;;;16.80;99.90;;;;;;5007869;28;20198;-64
2023/03/18 12:41:29;;;;;;;4.60;1.65;;;16.80;99.90;;;;;;4983817;28;20199;-64
2023/03/18 12:43:59;;;;;;;1.85;1.70;;;16.70;99.90;;;;;;5019296;28;20200;-66
2023/03/18 12:46:49;;;;;;;1.92;1.60;;;16.70;99.90;;;;;;5014395;28;20179;-64
2023/03/18 12:49:31;;;;;;;1.63;1.52;;;16.80;99.90;;;;;;5004745;28;20268;-64
2023/03/18 12:52:06;;;;;;;3.05;2.03;;;16.70;99.90;;;;;;5018201;28;20191;-64
2023/03/18 12:54:46;;;;;;;2.58;1.92;;;16.80;99.90;;;;;;5022236;28;20178;-64